createdAt,value
2018-08-16T00:01:21.712Z,100706.39
2018-08-16T00:06:26.432Z,100710.05
2018-08-16T00:11:31.784Z,100704.30
2018-08-16T00:16:36.307Z,100700.03
2018-08-16T00:21:41.022Z,100706.03
2018-08-16T00:26:45.599Z,100706.77
2018-08-16T00:31:50.152Z,100711.67
2018-08-16T00:36:54.586Z,100699.18
2018-08-16T00:41:59.064Z,100696.70
2018-08-16T00:47:03.688Z,100696.88
2018-08-16T00:52:08.349Z,100696.70
2018-08-16T00:57:13.112Z,100696.23
2018-08-16T01:02:18.591Z,100694.19
2018-08-16T01:07:23.851Z,100688.39
2018-08-16T01:12:28.787Z,100688.33
2018-08-16T01:17:34.202Z,100688.91
2018-08-16T01:22:38.954Z,100692.45
2018-08-16T01:27:43.767Z,100694.87
2018-08-16T01:32:48.637Z,100694.80
2018-08-16T01:37:53.293Z,100692.72
2018-08-16T01:42:57.898Z,100688.81
2018-08-16T01:48:02.988Z,100685.22
2018-08-16T01:53:07.472Z,100676.80
2018-08-16T01:58:11.942Z,100683.01
2018-08-16T02:03:16.160Z,100678.14
2018-08-16T02:08:21.479Z,100678.13
2018-08-16T02:13:25.581Z,100670.55
2018-08-16T02:18:29.755Z,100672.98
2018-08-16T02:23:34.385Z,100668.47
2018-08-16T02:28:38.568Z,100676.30
2018-08-16T02:33:42.571Z,100672.31
2018-08-16T02:38:46.773Z,100670.53
2018-08-16T02:43:50.841Z,100668.52
2018-08-16T02:48:55.727Z,100661.49
2018-08-16T02:53:59.644Z,100666.75
2018-08-16T02:59:03.797Z,100658.63
2018-08-16T03:04:07.721Z,100659.14
2018-08-16T03:09:12.107Z,100659.73
2018-08-16T03:14:16.190Z,100653.69
2018-08-16T03:19:20.246Z,100648.33
2018-08-16T03:24:24.149Z,100658.77
2018-08-16T03:29:27.936Z,100661.70
2018-08-16T03:34:31.860Z,100664.23
2018-08-16T03:39:35.717Z,100660.51
2018-08-16T03:44:39.671Z,100658.64
2018-08-16T03:49:43.464Z,100657.68
2018-08-16T03:54:47.471Z,100657.47
2018-08-16T03:59:51.251Z,100662.97
2018-08-16T04:04:55.229Z,100653.15
2018-08-16T04:09:59.223Z,100661.22
2018-08-16T04:15:08.119Z,100669.75
2018-08-16T04:20:12.533Z,100670.80
2018-08-16T04:25:18.176Z,100668.36
2018-08-16T04:30:21.943Z,100673.16
2018-08-16T04:35:25.652Z,100674.48
2018-08-16T04:40:29.296Z,100670.70
2018-08-16T04:45:32.945Z,100672.05
2018-08-16T04:50:36.673Z,100674.11
2018-08-16T04:55:42.120Z,100675.27
2018-08-16T05:00:45.861Z,100670.34
2018-08-16T05:05:49.591Z,100674.27
2018-08-16T05:10:53.311Z,100672.14
2018-08-16T05:15:57.002Z,100671.92
2018-08-16T05:21:00.726Z,100669.78
2018-08-16T05:26:04.413Z,100670.16
2018-08-16T05:31:08.086Z,100666.63
2018-08-16T05:36:11.822Z,100671.38
2018-08-16T05:41:15.509Z,100662.74
2018-08-16T05:46:19.165Z,100666.17
2018-08-16T05:51:22.985Z,100661.36
2018-08-16T05:56:26.842Z,100663.80
2018-08-16T06:01:30.745Z,100660.19
2018-08-16T06:06:34.481Z,100656.42
2018-08-16T06:11:38.462Z,100652.95
2018-08-16T06:16:42.305Z,100651.54
2018-08-16T06:21:46.810Z,100647.01
2018-08-16T06:26:50.823Z,100648.31
2018-08-16T06:31:56.429Z,100647.09
2018-08-16T06:37:00.308Z,100645.11
2018-08-16T06:42:04.090Z,100641.20
2018-08-16T06:47:07.922Z,100636.05
2018-08-16T06:52:11.678Z,100629.30
2018-08-16T06:57:15.430Z,100627.10
2018-08-16T07:02:19.234Z,100619.39
2018-08-16T07:07:22.959Z,100618.62
2018-08-16T07:12:26.656Z,100619.94
2018-08-16T07:17:30.374Z,100622.61
2018-08-16T07:22:34.103Z,100620.11
2018-08-16T07:27:37.896Z,100607.95
2018-08-16T07:32:41.611Z,100610.20
2018-08-16T07:37:45.310Z,100608.53
2018-08-16T07:42:48.990Z,100609.00
2018-08-16T07:47:52.750Z,100605.24
2018-08-16T07:52:56.398Z,100602.36
2018-08-16T07:58:00.257Z,100600.30
2018-08-16T08:03:04.040Z,100593.70
2018-08-16T08:08:07.881Z,100590.05
2018-08-16T08:13:11.822Z,100595.55
2018-08-16T08:18:15.786Z,100594.25
2018-08-16T08:23:19.530Z,100589.84
2018-08-16T08:28:23.406Z,100588.74
2018-08-16T08:33:27.111Z,100577.13
2018-08-16T08:38:30.904Z,100590.92
2018-08-16T08:43:45.741Z,100573.44
2018-08-16T08:48:49.470Z,100572.45
2018-08-16T08:57:09.082Z,100565.20
2018-08-16T09:02:13.171Z,100553.31
2018-08-16T09:07:18.201Z,100541.28
2018-08-16T09:12:33.179Z,100541.27
2018-08-16T09:17:37.526Z,100538.30
2018-08-16T09:22:42.554Z,100533.84
2018-08-16T09:27:46.352Z,100529.20
2018-08-16T09:33:01.274Z,100518.50
2018-08-16T09:38:05.702Z,100518.80
2018-08-16T09:43:09.378Z,100521.92
2018-08-16T09:48:24.438Z,100520.48
2018-08-16T09:53:28.090Z,100511.93
2018-08-16T09:58:31.766Z,100515.48
2018-08-16T10:03:35.498Z,100506.05
2018-08-16T10:08:39.261Z,100502.75
2018-08-16T10:13:42.914Z,100494.39
2018-08-16T10:18:46.607Z,100485.32
2018-08-16T10:23:50.300Z,100481.14
2018-08-16T10:28:53.975Z,100476.49
2018-08-16T10:33:57.954Z,100470.83
2018-08-16T10:39:01.605Z,100460.41
2018-08-16T10:44:05.470Z,100456.58
2018-08-16T10:49:09.188Z,100460.63
2018-08-16T10:54:12.881Z,100461.58
2018-08-16T10:59:16.633Z,100447.11
2018-08-16T11:04:20.440Z,100437.55
2018-08-16T11:09:24.656Z,100434.34
2018-08-16T11:14:28.469Z,100429.17
2018-08-16T11:19:32.223Z,100423.92
2018-08-16T11:24:35.926Z,100413.34
2018-08-16T11:29:50.555Z,100407.17
2018-08-16T11:34:55.559Z,100398.84
2018-08-16T11:39:59.286Z,100398.70
2018-08-16T11:45:04.868Z,100373.80
2018-08-16T11:50:09.103Z,100372.66
2018-08-16T11:55:15.527Z,100370.31
2018-08-16T12:00:25.549Z,100369.20
2018-08-16T12:05:33.650Z,100365.66
2018-08-16T12:10:37.433Z,100367.36
2018-08-16T12:15:41.754Z,100361.83
2018-08-16T12:20:45.489Z,100364.88
2018-08-16T12:25:51.211Z,100350.75
2018-08-16T12:30:54.874Z,100342.31
2018-08-16T12:35:58.539Z,100339.11
2018-08-16T12:41:02.711Z,100332.58
2018-08-16T12:46:06.401Z,100324.38
2018-08-16T12:51:10.133Z,100325.58
2018-08-16T12:56:13.852Z,100310.95
2018-08-16T13:01:17.543Z,100298.81
2018-08-16T13:06:22.161Z,100287.73
2018-08-16T13:11:26.024Z,100283.58
2018-08-16T13:16:29.652Z,100274.14
2018-08-16T13:21:33.333Z,100274.13
2018-08-16T13:26:36.979Z,100268.80
2018-08-16T13:31:40.612Z,100253.75
2018-08-16T13:36:44.747Z,100253.45
2018-08-16T13:41:48.368Z,100254.84
2018-08-16T13:46:52.398Z,100248.20
2018-08-16T13:51:56.158Z,100239.66
2018-08-16T13:56:59.951Z,100243.70
2018-08-16T14:02:04.065Z,100231.36
2018-08-16T14:07:07.756Z,100222.42
2018-08-16T14:12:11.663Z,100219.30
2018-08-16T14:17:15.539Z,100217.95
2018-08-16T14:22:19.771Z,100209.79
2018-08-16T14:27:23.493Z,100210.98
2018-08-16T14:32:27.223Z,100206.33
2018-08-16T14:37:30.899Z,100208.02
2018-08-16T14:42:34.598Z,100201.62
2018-08-16T14:47:39.121Z,100204.17
2018-08-16T14:52:43.244Z,100200.13
2018-08-16T14:57:46.981Z,100199.67
2018-08-16T15:02:50.647Z,100190.45
2018-08-16T15:07:54.298Z,100182.85
2018-08-16T15:12:57.952Z,100181.35
2018-08-16T15:18:01.603Z,100179.50
2018-08-16T15:23:05.230Z,100173.91
2018-08-16T15:28:08.925Z,100174.03
2018-08-16T15:33:12.622Z,100172.05
2018-08-16T15:38:16.199Z,100165.31
2018-08-16T15:43:19.902Z,100163.39
2018-08-16T15:48:23.512Z,100161.13
2018-08-16T15:53:27.131Z,100158.66
2018-08-16T15:58:30.811Z,100155.89
2018-08-16T16:03:34.450Z,100150.17
2018-08-16T16:08:38.195Z,100152.02
2018-08-16T16:13:42.008Z,100150.30
2018-08-16T16:18:45.893Z,100146.97
2018-08-16T16:23:49.669Z,100143.42
2018-08-16T16:28:53.559Z,100135.44
2018-08-16T16:33:57.231Z,100134.21
2018-08-16T16:39:01.106Z,100127.27
2018-08-16T16:44:04.897Z,100126.23
2018-08-16T16:49:08.603Z,100124.54
2018-08-16T16:54:12.246Z,100118.54
2018-08-16T16:59:16.106Z,100118.03
2018-08-16T17:04:19.954Z,100113.98
2018-08-16T17:09:23.782Z,100114.92
2018-08-16T17:14:28.786Z,100116.81
2018-08-16T17:19:32.814Z,100116.20
2018-08-16T17:24:36.840Z,100112.75
2018-08-16T17:29:41.115Z,100106.52
2018-08-16T17:34:44.977Z,100103.98
2018-08-16T17:39:48.869Z,100107.02
2018-08-16T17:44:52.736Z,100102.88
2018-08-16T17:49:56.439Z,100107.20
2018-08-16T17:55:00.759Z,100106.66
2018-08-16T18:00:09.843Z,100106.32
2018-08-16T18:05:14.244Z,100109.17
2018-08-16T18:10:18.195Z,100106.03
2018-08-16T18:15:22.179Z,100108.20
2018-08-16T18:20:25.967Z,100107.17
2018-08-16T18:25:29.670Z,100110.50
2018-08-16T18:30:33.439Z,100116.56
2018-08-16T18:35:37.144Z,100108.27
2018-08-16T18:40:40.920Z,100122.43
2018-08-16T18:45:44.794Z,100120.86
2018-08-16T18:51:21.348Z,100114.73
2018-08-16T18:56:25.212Z,100128.27
2018-08-16T19:01:29.050Z,100123.18
2018-08-16T19:11:44.565Z,100125.19
2018-08-16T19:16:48.519Z,100126.13
2018-08-16T19:21:52.419Z,100126.27
2018-08-16T19:26:56.550Z,100112.41
2018-08-16T19:32:00.425Z,100121.45
2018-08-16T19:37:04.315Z,100123.22
2018-08-16T19:42:08.817Z,100116.84
2018-08-16T19:47:12.822Z,100113.23
2018-08-16T19:52:16.521Z,100108.55
2018-08-16T19:57:20.234Z,100108.67
2018-08-16T20:02:23.925Z,100102.64
2018-08-16T20:07:28.434Z,100100.03
2018-08-16T20:12:35.445Z,100092.48
2018-08-16T20:17:39.673Z,100104.08
2018-08-16T20:22:43.575Z,100099.50
2018-08-16T20:27:47.522Z,100101.37
2018-08-16T20:32:51.474Z,100100.94
2018-08-16T20:37:55.304Z,100098.25
2018-08-16T20:42:59.090Z,100101.13
2018-08-16T20:48:04.013Z,100100.00
2018-08-16T20:53:07.956Z,100099.67
2018-08-16T20:58:11.679Z,100094.80
2018-08-16T21:03:15.594Z,100094.66
2018-08-16T21:08:20.132Z,100100.27
2018-08-16T21:13:24.549Z,100095.55
2018-08-16T21:18:28.608Z,100103.08
2018-08-16T21:23:32.383Z,100104.31
2018-08-16T21:28:36.155Z,100110.41
2018-08-16T21:33:39.967Z,100113.63
2018-08-16T21:38:43.804Z,100118.03
2018-08-16T21:43:47.499Z,100126.03
2018-08-16T21:48:51.346Z,100125.87
2018-08-16T21:53:55.229Z,100124.35
2018-08-16T21:59:00.053Z,100125.03
2018-08-16T22:04:03.860Z,100123.89
2018-08-16T22:09:08.560Z,100128.81
2018-08-16T22:14:13.641Z,100127.46
2018-08-16T22:19:17.576Z,100123.23
2018-08-16T22:24:21.432Z,100132.75
2018-08-16T22:29:25.248Z,100133.09
2018-08-16T22:34:28.976Z,100131.58
2018-08-16T22:39:32.921Z,100124.35
2018-08-16T22:44:36.920Z,100128.92
2018-08-16T22:49:40.735Z,100129.44
2018-08-16T22:54:44.862Z,100119.30
2018-08-16T22:59:48.763Z,100126.73
2018-08-16T23:04:52.618Z,100119.97
2018-08-16T23:09:56.468Z,100118.96
2018-08-16T23:15:05.622Z,100108.84
2018-08-16T23:20:10.023Z,100113.76
2018-08-16T23:25:13.833Z,100110.70
2018-08-16T23:30:17.758Z,100113.76
2018-08-16T23:36:25.493Z,100112.92
2018-08-16T23:41:29.280Z,100112.74
2018-08-16T23:46:33.062Z,100107.50
2018-08-16T23:51:36.835Z,100108.86
2018-08-16T23:56:40.607Z,100108.52
